Time;durP1;ratioP1;P1;durP2;ratioP2;P2;SDS_P1;SDS_P2;PMS_P1;PMS_P2;Temp;Humidity;BMP_temperature;BMP_pressure;BME280_temperature;BME280_humidity;BME280_pressure;Samples;Min_cycle;Max_cycle;Signal;HPM_P1;HPM_P2
2021/04/05 00:01:15;;;;;;;14.10;8.60;;;4.00;99.90;;;;;;5047192;28;20679;-81
2021/04/05 00:03:40;;;;;;;14.00;8.50;;;4.00;99.90;;;;;;5047354;28;20187;-82
2021/04/05 00:06:06;;;;;;;16.60;9.27;;;4.10;99.90;;;;;;5045344;28;20205;-81
2021/04/05 00:08:32;;;;;;;13.80;7.83;;;4.00;99.90;;;;;;5045740;28;20194;-83
2021/04/05 00:10:57;;;;;;;14.80;8.07;;;4.00;99.90;;;;;;5045829;28;20213;-81
2021/04/05 00:13:38;;;;;;;14.97;8.37;;;4.10;99.90;;;;;;5044988;28;20208;-82
2021/04/05 00:16:04;;;;;;;12.73;7.73;;;4.10;99.90;;;;;;5044581;28;20190;-79
2021/04/05 00:18:29;;;;;;;12.60;8.37;;;4.10;99.90;;;;;;5045555;28;20699;-79
2021/04/05 00:21:01;;;;;;;15.20;7.67;;;4.00;99.90;;;;;;5044499;28;20193;-82
2021/04/05 00:23:26;;;;;;;13.80;8.47;;;4.00;99.90;;;;;;5045648;28;20182;-81
2021/04/05 00:25:52;;;;;;;13.97;7.63;;;4.00;99.90;;;;;;5043764;28;20232;-81
2021/04/05 00:28:18;;;;;;;13.80;9.20;;;4.00;99.90;;;;;;5044340;28;20204;-80
2021/04/05 00:30:44;;;;;;;13.10;8.30;;;4.00;99.90;;;;;;5041333;28;20232;-82
2021/04/05 00:33:10;;;;;;;14.10;9.53;;;3.90;99.90;;;;;;5043356;28;20273;-79
2021/04/05 00:35:38;;;;;;;12.60;8.03;;;3.90;99.90;;;;;;5044637;28;20257;-79
2021/04/05 00:38:07;;;;;;;15.03;6.97;;;3.80;99.90;;;;;;5043875;28;20216;-81
2021/04/05 00:40:34;;;;;;;12.13;7.63;;;3.80;99.90;;;;;;5043530;28;20284;-82
2021/04/05 00:43:01;;;;;;;11.57;7.43;;;3.80;99.90;;;;;;5044108;28;20269;-82
2021/04/05 00:45:28;;;;;;;11.97;7.40;;;3.80;99.90;;;;;;5039203;28;20656;-81
2021/04/05 00:47:54;;;;;;;12.77;7.57;;;3.90;99.90;;;;;;5043662;28;20217;-79
2021/04/05 00:50:25;;;;;;;10.80;7.33;;;3.90;99.90;;;;;;5044669;28;20178;-82
2021/04/05 00:52:51;;;;;;;14.40;7.97;;;3.90;99.90;;;;;;5045367;28;20643;-81
2021/04/05 00:55:18;;;;;;;10.40;7.13;;;4.00;99.90;;;;;;5045036;28;21233;-79
2021/04/05 00:57:43;;;;;;;9.87;6.20;;;4.10;99.90;;;;;;5045750;28;20229;-81
2021/04/05 01:00:14;;;;;;;11.07;7.17;;;4.00;99.90;;;;;;5044944;28;20224;-81
2021/04/05 01:02:40;;;;;;;10.00;6.47;;;4.10;99.90;;;;;;5043803;28;20809;-80
2021/04/05 01:05:07;;;;;;;10.47;6.63;;;4.10;99.90;;;;;;5044504;28;20272;-81
2021/04/05 01:07:33;;;;;;;10.40;7.03;;;4.20;99.90;;;;;;5041609;28;20301;-80
2021/04/05 01:09:59;;;;;;;9.97;6.73;;;4.20;99.90;;;;;;5044601;28;20265;-80
2021/04/05 01:12:24;;;;;;;10.20;5.93;;;4.30;99.90;;;;;;5044138;28;20538;-81
2021/04/05 01:14:50;;;;;;;10.30;7.10;;;4.30;99.90;;;;;;5044594;28;20193;-79
2021/04/05 01:17:15;;;;;;;12.17;6.10;;;4.40;99.90;;;;;;5044804;28;21073;-81
2021/04/05 01:19:41;;;;;;;13.73;5.70;;;4.40;99.90;;;;;;5045373;28;20194;-80
2021/04/05 01:22:07;;;;;;;10.37;6.67;;;4.50;99.90;;;;;;5045336;28;20248;-80
2021/04/05 01:24:33;;;;;;;8.63;5.50;;;4.50;99.90;;;;;;5044417;28;20656;-81
2021/04/05 01:26:59;;;;;;;13.30;8.00;;;4.40;99.90;;;;;;5044932;28;20213;-80
2021/04/05 01:29:24;;;;;;;10.83;6.70;;;4.50;99.90;;;;;;5045994;28;20182;-80
2021/04/05 01:31:50;;;;;;;8.57;5.10;;;4.50;99.90;;;;;;5042868;28;20203;-81
2021/04/05 01:34:16;;;;;;;11.57;6.20;;;4.60;99.90;;;;;;5041401;28;20269;-81
2021/04/05 01:36:42;;;;;;;8.47;5.33;;;4.50;99.90;;;;;;5043589;28;20273;-81
2021/04/05 01:39:07;;;;;;;9.00;5.40;;;4.40;99.90;;;;;;5045591;28;20186;-78
2021/04/05 01:41:33;;;;;;;8.70;5.67;;;4.50;99.90;;;;;;5044212;28;20240;-81
2021/04/05 01:44:00;;;;;;;8.90;5.87;;;4.40;99.90;;;;;;5044731;28;20186;-82
2021/04/05 01:46:28;;;;;;;9.97;5.70;;;4.30;99.90;;;;;;5047558;28;20257;-81
2021/04/05 01:48:58;;;;;;;10.20;5.97;;;4.30;99.90;;;;;;5047845;28;20213;-80
2021/04/05 01:51:25;;;;;;;6.73;4.83;;;4.30;99.90;;;;;;5047783;28;20243;-80
2021/04/05 01:53:52;;;;;;;7.40;4.93;;;4.30;99.90;;;;;;5047695;28;20281;-82
2021/04/05 01:56:18;;;;;;;13.07;6.13;;;4.30;99.90;;;;;;5047603;28;21048;-80
2021/04/05 01:58:47;;;;;;;9.50;5.63;;;4.30;99.90;;;;;;5047917;28;20562;-82
2021/04/05 02:01:23;;;;;;;9.77;6.03;;;4.40;99.90;;;;;;5047556;28;20185;-81
2021/04/05 02:03:50;;;;;;;8.83;4.83;;;4.40;99.90;;;;;;5047501;28;20192;-79
2021/04/05 02:06:18;;;;;;;10.10;5.37;;;4.40;99.90;;;;;;5049086;28;20224;-81
2021/04/05 02:08:44;;;;;;;8.37;5.40;;;4.50;99.90;;;;;;5047951;28;20233;-82
2021/04/05 02:11:14;;;;;;;9.37;5.83;;;4.50;99.90;;;;;;5047201;28;20190;-81
2021/04/05 02:13:41;;;;;;;10.33;5.13;;;4.50;99.90;;;;;;5039511;28;20258;-80
2021/04/05 02:16:07;;;;;;;12.10;5.87;;;4.50;99.90;;;;;;5049033;28;20254;-81
2021/04/05 02:18:36;;;;;;;8.30;5.13;;;4.50;99.90;;;;;;5047891;28;20210;-81
2021/04/05 02:21:01;;;;;;;12.90;6.90;;;4.60;99.90;;;;;;5049019;28;20221;-80
2021/04/05 02:23:27;;;;;;;7.00;5.60;;;4.70;99.90;;;;;;5047107;28;20186;-82
2021/04/05 02:26:08;;;;;;;8.03;5.17;;;4.70;99.90;;;;;;5046259;28;20194;-81
2021/04/05 02:28:55;;;;;;;10.40;6.27;;;4.70;99.90;;;;;;5047202;28;20194;-81
2021/04/05 02:31:24;;;;;;;8.73;5.83;;;4.70;99.90;;;;;;5046396;28;20182;-79
2021/04/05 02:33:51;;;;;;;7.17;4.77;;;4.80;99.90;;;;;;5046058;28;20182;-81
2021/04/05 02:36:19;;;;;;;9.00;6.03;;;4.70;99.90;;;;;;5047003;28;20599;-80
2021/04/05 02:38:52;;;;;;;8.10;4.90;;;4.80;99.90;;;;;;5047146;28;20280;-81
2021/04/05 02:41:20;;;;;;;8.57;4.87;;;4.80;99.90;;;;;;5046704;28;20179;-81
2021/04/05 02:43:46;;;;;;;7.83;5.37;;;4.80;99.90;;;;;;5063165;28;20186;-81
2021/04/05 02:46:18;;;;;;;11.43;5.53;;;4.80;99.90;;;;;;5045970;28;20305;-81
2021/04/05 02:48:46;;;;;;;9.67;5.97;;;4.80;99.90;;;;;;5047192;28;20222;-80
2021/04/05 02:51:12;;;;;;;9.30;6.07;;;4.80;99.90;;;;;;5045444;28;20830;-81
2021/04/05 02:53:47;;;;;;;9.13;5.67;;;4.80;99.90;;;;;;5046758;28;20214;-80
2021/04/05 02:56:14;;;;;;;7.43;5.07;;;4.80;99.90;;;;;;5044422;28;20220;-81
2021/04/05 02:58:42;;;;;;;10.73;5.93;;;4.80;99.90;;;;;;5045563;28;20711;-79
2021/04/05 03:01:09;;;;;;;11.07;5.90;;;4.80;99.90;;;;;;5047076;28;20607;-81
2021/04/05 03:03:43;;;;;;;7.00;4.73;;;4.70;99.90;;;;;;5043046;28;20190;-81
2021/04/05 03:06:13;;;;;;;9.10;5.50;;;4.70;99.90;;;;;;5043007;28;20206;-81
2021/04/05 03:08:39;;;;;;;7.17;4.83;;;4.70;99.90;;;;;;5037491;28;20283;-79
2021/04/05 03:11:05;;;;;;;6.20;4.53;;;4.80;99.90;;;;;;5045642;28;20684;-81
2021/04/05 03:13:34;;;;;;;8.03;5.10;;;4.70;99.90;;;;;;5047189;28;20190;-80
2021/04/05 03:16:02;;;;;;;8.47;4.93;;;4.80;99.90;;;;;;5045840;28;20200;-79
2021/04/05 03:18:30;;;;;;;9.63;6.13;;;4.80;99.90;;;;;;5045775;28;20202;-80
2021/04/05 03:20:56;;;;;;;7.37;4.43;;;4.80;99.90;;;;;;5045568;28;20277;-80
2021/04/05 03:23:22;;;;;;;8.60;5.83;;;4.80;99.90;;;;;;5045378;28;20281;-80
2021/04/05 03:25:48;;;;;;;8.13;5.10;;;4.80;99.90;;;;;;5045048;28;20208;-82
2021/04/05 03:28:14;;;;;;;8.33;5.27;;;4.80;99.90;;;;;;5045568;28;20678;-81
2021/04/05 03:30:48;;;;;;;6.63;4.33;;;4.70;99.90;;;;;;5046139;28;20190;-81
2021/04/05 03:33:35;;;;;;;7.83;5.37;;;4.70;99.90;;;;;;5045376;28;20196;-79
2021/04/05 03:36:07;;;;;;;8.50;4.97;;;4.80;99.90;;;;;;5041357;28;20594;-79
2021/04/05 03:38:35;;;;;;;9.30;5.33;;;4.80;99.90;;;;;;5046257;28;20209;-79
2021/04/05 03:41:04;;;;;;;9.10;5.30;;;4.80;99.90;;;;;;5045435;28;20497;-81
2021/04/05 03:43:40;;;;;;;7.53;5.00;;;4.80;99.90;;;;;;5043498;28;20208;-81
2021/04/05 03:46:16;;;;;;;6.57;4.50;;;4.80;99.90;;;;;;5044931;28;20186;-80
2021/04/05 03:48:51;;;;;;;7.17;4.50;;;4.80;99.90;;;;;;5045606;28;20209;-81
2021/04/05 03:51:23;;;;;;;10.53;5.30;;;4.80;99.90;;;;;;5046884;28;20601;-81
2021/04/05 03:54:18;;;;;;;9.27;5.77;;;4.80;99.90;;;;;;5045117;28;20174;-81
2021/04/05 03:56:46;;;;;;;7.13;4.50;;;4.80;99.90;;;;;;5043876;28;20213;-80
2021/04/05 03:59:26;;;;;;;7.47;4.43;;;4.80;99.90;;;;;;5045357;28;20591;-80
2021/04/05 04:01:57;;;;;;;7.90;5.13;;;4.80;99.90;;;;;;5044749;28;20240;-80
2021/04/05 04:04:38;;;;;;;9.00;5.30;;;4.90;99.90;;;;;;5045244;28;20182;-80
2021/04/05 04:07:14;;;;;;;5.40;4.53;;;4.90;99.90;;;;;;5044504;28;20210;-81
2021/04/05 04:09:41;;;;;;;7.70;4.70;;;4.90;99.90;;;;;;5044277;28;20181;-78
2021/04/05 04:12:12;;;;;;;7.10;5.07;;;4.90;99.90;;;;;;5044587;28;20186;-81
2021/04/05 04:14:39;;;;;;;8.40;4.90;;;5.00;99.90;;;;;;5043961;28;20186;-81
2021/04/05 04:17:07;;;;;;;8.83;5.33;;;5.00;99.90;;;;;;5043835;28;20692;-81
2021/04/05 04:19:34;;;;;;;7.10;4.47;;;5.00;99.90;;;;;;5045091;28;20288;-80
2021/04/05 04:22:01;;;;;;;4.87;3.70;;;5.10;99.90;;;;;;5045090;28;20186;-81
2021/04/05 04:24:27;;;;;;;8.83;4.90;;;5.10;99.90;;;;;;5043876;28;20190;-80
2021/04/05 04:26:53;;;;;;;7.73;4.77;;;5.10;99.90;;;;;;5044075;28;20206;-81
2021/04/05 04:29:21;;;;;;;8.27;5.47;;;5.20;99.90;;;;;;5044061;28;20196;-81
2021/04/05 04:31:47;;;;;;;9.47;5.27;;;5.20;99.90;;;;;;5041636;28;20320;-79
2021/04/05 04:34:19;;;;;;;7.97;4.80;;;5.20;99.90;;;;;;5043811;28;20264;-81
2021/04/05 04:36:46;;;;;;;9.03;5.17;;;5.30;99.90;;;;;;5043507;28;20189;-81
2021/04/05 04:39:13;;;;;;;8.97;5.30;;;5.30;99.90;;;;;;5044409;28;20304;-82
2021/04/05 04:41:41;;;;;;;10.03;5.80;;;5.30;99.90;;;;;;5043696;28;20194;-82
2021/04/05 04:44:08;;;;;;;9.17;5.30;;;5.30;99.90;;;;;;5044318;28;20693;-80
2021/04/05 04:46:34;;;;;;;8.93;5.03;;;5.30;99.90;;;;;;5043956;28;20209;-81
2021/04/05 04:49:04;;;;;;;7.50;5.30;;;5.30;99.90;;;;;;5044227;28;20222;-80
2021/04/05 04:51:31;;;;;;;11.37;4.77;;;5.30;99.90;;;;;;5044781;28;20182;-82
2021/04/05 04:53:59;;;;;;;9.07;5.33;;;5.30;99.90;;;;;;5044428;28;20182;-81
2021/04/05 04:56:26;;;;;;;9.20;5.03;;;5.30;99.90;;;;;;5035564;28;20178;-81
2021/04/05 04:59:02;;;;;;;8.07;4.93;;;5.40;99.90;;;;;;5044021;28;20210;-80
2021/04/05 05:01:30;;;;;;;6.20;4.33;;;5.40;99.90;;;;;;5044032;28;20284;-83
2021/04/05 05:03:59;;;;;;;6.57;4.60;;;5.40;99.90;;;;;;5036484;28;20639;-81
2021/04/05 05:06:27;;;;;;;10.27;5.70;;;5.50;99.90;;;;;;5044059;28;20206;-83
2021/04/05 05:08:54;;;;;;;8.03;4.87;;;5.50;99.90;;;;;;5044396;28;20198;-79
2021/04/05 05:11:21;;;;;;;8.43;5.40;;;5.50;99.90;;;;;;5053215;28;20182;-81
2021/04/05 05:13:46;;;;;;;12.23;5.47;;;5.50;99.90;;;;;;5045176;28;20170;-80
2021/04/05 05:16:13;;;;;;;5.87;4.47;;;5.50;99.90;;;;;;5044322;28;20648;-81
2021/04/05 05:18:39;;;;;;;5.77;4.23;;;5.60;99.90;;;;;;5044266;28;20212;-82
2021/04/05 05:21:13;;;;;;;9.60;6.03;;;5.60;99.90;;;;;;5047818;28;20209;-80
2021/04/05 05:23:41;;;;;;;10.20;5.57;;;5.60;99.90;;;;;;5049746;28;20182;-81
2021/04/05 05:26:10;;;;;;;8.43;4.40;;;5.60;99.90;;;;;;5047930;28;20269;-80
2021/04/05 05:28:37;;;;;;;7.77;4.97;;;5.60;99.90;;;;;;5039994;28;20210;-81
2021/04/05 05:31:03;;;;;;;7.37;5.30;;;5.70;99.90;;;;;;5049374;28;20190;-80
2021/04/05 05:33:29;;;;;;;8.83;5.37;;;5.80;99.90;;;;;;5046973;28;20193;-82
2021/04/05 05:35:57;;;;;;;8.90;5.30;;;5.80;99.90;;;;;;5049567;28;20190;-79
2021/04/05 05:38:23;;;;;;;7.17;5.50;;;5.90;99.90;;;;;;5047491;28;20292;-80
2021/04/05 05:40:51;;;;;;;7.43;5.03;;;5.80;99.90;;;;;;5047698;28;20205;-80
2021/04/05 05:43:35;;;;;;;6.93;4.30;;;5.90;99.90;;;;;;5047416;28;20185;-81
2021/04/05 05:46:19;;;;;;;8.83;5.20;;;5.90;99.90;;;;;;5039118;28;20209;-82
2021/04/05 05:48:48;;;;;;;11.23;4.87;;;5.90;99.90;;;;;;5047355;28;20213;-82
2021/04/05 05:51:58;;;;;;;11.27;4.80;;;5.90;99.90;;;;;;5048258;28;20459;-83
2021/04/05 05:55:05;;;;;;;8.10;5.40;;;5.90;99.90;;;;;;5047049;28;20189;-79
2021/04/05 05:57:57;;;;;;;9.83;5.77;;;5.90;99.90;;;;;;5047958;28;20272;-81
2021/04/05 06:00:32;;;;;;;8.63;5.00;;;5.90;99.90;;;;;;5049043;28;20190;-80
2021/04/05 06:03:19;;;;;;;6.17;4.27;;;5.90;99.90;;;;;;5048930;28;20288;-82
2021/04/05 06:06:04;;;;;;;7.97;5.17;;;5.90;99.90;;;;;;5047182;28;20186;-82
2021/04/05 06:08:39;;;;;;;7.30;5.20;;;5.90;99.90;;;;;;5047977;28;20205;-83
2021/04/05 06:11:15;;;;;;;7.90;4.93;;;6.00;99.90;;;;;;5049985;28;20201;-80
2021/04/05 06:14:00;;;;;;;7.63;5.10;;;6.00;99.90;;;;;;5044199;28;20511;-82
2021/04/05 06:16:40;;;;;;;11.83;5.37;;;6.00;99.90;;;;;;5045431;28;20174;-79
2021/04/05 06:19:33;;;;;;;6.20;4.67;;;6.10;99.90;;;;;;5043390;28;20220;-80
2021/04/05 06:22:14;;;;;;;10.13;5.40;;;6.10;99.90;;;;;;5045871;28;20669;-80
2021/04/05 06:24:53;;;;;;;7.47;4.30;;;6.10;99.90;;;;;;5043756;28;20461;-82
2021/04/05 06:27:51;;;;;;;6.90;4.30;;;6.10;99.90;;;;;;5048205;28;20213;-79
2021/04/05 06:30:40;;;;;;;8.03;5.33;;;6.10;99.90;;;;;;5044845;28;21429;-79
2021/04/05 06:33:15;;;;;;;6.43;5.13;;;6.10;99.90;;;;;;5044721;28;20622;-81
2021/04/05 06:36:12;;;;;;;11.50;5.53;;;6.00;99.90;;;;;;5044088;28;20198;-79
2021/04/05 06:38:43;;;;;;;7.43;4.83;;;6.00;99.90;;;;;;5046429;28;20202;-78
2021/04/05 06:41:35;;;;;;;7.20;4.87;;;6.00;99.90;;;;;;5038784;28;20644;-79
2021/04/05 06:44:07;;;;;;;7.37;5.70;;;6.00;99.90;;;;;;5040648;28;20213;-79
2021/04/05 06:47:11;;;;;;;8.00;4.50;;;6.00;99.90;;;;;;5042406;28;20226;-80
2021/04/05 06:50:04;;;;;;;8.50;6.07;;;6.10;99.90;;;;;;5041246;28;20209;-79
2021/04/05 06:52:58;;;;;;;10.77;5.10;;;6.10;99.90;;;;;;5044860;28;20185;-78
2021/04/05 06:55:44;;;;;;;7.00;5.03;;;6.10;99.90;;;;;;5043661;28;20543;-77
2021/04/05 06:58:41;;;;;;;7.50;4.77;;;6.10;99.90;;;;;;5045301;28;20292;-78
2021/04/05 07:01:19;;;;;;;5.40;3.60;;;6.20;99.90;;;;;;5046771;28;20182;-80
2021/04/05 07:04:17;;;;;;;7.83;5.13;;;6.10;99.90;;;;;;5045007;28;20182;-79
2021/04/05 07:06:51;;;;;;;7.87;5.53;;;6.10;99.90;;;;;;5043500;28;20240;-79
2021/04/05 07:09:33;;;;;;;7.20;5.17;;;6.20;99.90;;;;;;5045095;28;20178;-79
2021/04/05 07:12:22;;;;;;;8.80;4.80;;;6.20;99.90;;;;;;5045453;28;20178;-79
2021/04/05 07:14:56;;;;;;;8.27;5.47;;;6.20;99.90;;;;;;5044491;28;20186;-79
2021/04/05 07:17:47;;;;;;;10.90;4.67;;;6.10;99.90;;;;;;5044561;28;20206;-79
2021/04/05 07:20:31;;;;;;;6.90;5.13;;;6.00;99.90;;;;;;5046164;28;20188;-78
2021/04/05 07:22:56;;;;;;;6.07;5.23;;;6.10;99.90;;;;;;5044468;28;20182;-79
2021/04/05 07:26:04;;;;;;;9.20;6.00;;;6.00;99.90;;;;;;5044605;28;20561;-79
2021/04/05 07:28:54;;;;;;;6.13;4.93;;;6.00;99.90;;;;;;5040333;28;20240;-78
2021/04/05 07:31:34;;;;;;;6.03;4.93;;;5.90;99.90;;;;;;5045109;28;20185;-79
2021/04/05 07:34:09;;;;;;;8.30;6.10;;;6.00;99.90;;;;;;5043854;28;20194;-79
2021/04/05 07:37:13;;;;;;;6.37;5.07;;;5.90;99.90;;;;;;5040559;28;20170;-79
2021/04/05 07:40:10;;;;;;;7.70;5.87;;;5.90;99.90;;;;;;5041661;28;20209;-78
2021/04/05 07:42:46;;;;;;;5.43;4.37;;;5.90;99.90;;;;;;5038540;28;20202;-80
2021/04/05 07:46:06;;;;;;;7.33;5.40;;;5.90;99.90;;;;;;5042109;28;20174;-79
2021/04/05 07:48:34;;;;;;;6.47;3.50;;;5.90;99.90;;;;;;5024921;28;20226;-79
2021/04/05 07:51:06;;;;;;;8.70;5.57;;;5.80;99.90;;;;;;5042295;28;20288;-79
2021/04/05 07:53:40;;;;;;;7.03;4.40;;;5.90;99.90;;;;;;5035094;28;20561;-79
2021/04/05 07:56:14;;;;;;;7.20;5.57;;;5.80;99.90;;;;;;5043026;28;20678;-80
2021/04/05 07:58:58;;;;;;;7.80;4.90;;;5.80;99.90;;;;;;5043782;28;20228;-79
2021/04/05 08:01:38;;;;;;;5.43;4.47;;;5.80;99.90;;;;;;5042139;28;20993;-79
2021/04/05 08:04:21;;;;;;;4.57;3.40;;;5.90;99.90;;;;;;5039120;28;20235;-79
2021/04/05 08:06:57;;;;;;;1.30;1.10;;;5.70;99.90;;;;;;5040600;28;20285;-78
2021/04/05 08:09:46;;;;;;;1.00;0.90;;;4.50;99.90;;;;;;5034676;28;20908;-78
2021/04/05 08:12:28;;;;;;;1.93;1.20;;;3.70;99.90;;;;;;5041398;28;20185;-78
2021/04/05 08:14:56;;;;;;;1.20;1.10;;;3.50;99.90;;;;;;5040187;28;20179;-77
2021/04/05 08:17:50;;;;;;;1.73;1.20;;;3.40;99.90;;;;;;5040477;28;20206;-79
2021/04/05 08:20:25;;;;;;;0.50;0.50;;;3.40;99.90;;;;;;5041837;28;20661;-78
2021/04/05 08:22:54;;;;;;;0.47;0.40;;;3.40;99.90;;;;;;5042963;28;20828;-78
2021/04/05 08:25:46;;;;;;;0.77;0.77;;;3.40;99.90;;;;;;5043698;28;20186;-79
2021/04/05 08:28:24;;;;;;;2.07;0.90;;;3.50;99.90;;;;;;5041806;28;20279;-79
2021/04/05 08:31:28;;;;;;;1.03;0.93;;;3.70;99.90;;;;;;5039091;28;20177;-79
2021/04/05 08:34:18;;;;;;;2.47;0.93;;;3.80;99.90;;;;;;5041730;28;20291;-77
2021/04/05 08:36:51;;;;;;;1.17;1.07;;;3.80;99.90;;;;;;5041308;28;20193;-77
2021/04/05 08:39:23;;;;;;;1.10;0.80;;;3.80;99.90;;;;;;5037068;28;20182;-77
2021/04/05 08:41:57;;;;;;;1.03;0.60;;;3.70;99.90;;;;;;5042552;28;20547;-77
2021/04/05 08:44:47;;;;;;;1.37;0.87;;;3.80;99.90;;;;;;5041635;28;20200;-77
2021/04/05 08:47:18;;;;;;;0.40;0.40;;;3.90;99.90;;;;;;5042066;28;20271;-78
2021/04/05 08:49:47;;;;;;;0.50;0.40;;;3.90;99.90;;;;;;5044332;28;20248;-77
2021/04/05 08:52:16;;;;;;;0.40;0.40;;;3.90;99.90;;;;;;5041728;28;20266;-78
2021/04/05 08:54:42;;;;;;;0.77;0.60;;;3.90;99.90;;;;;;5042204;28;20656;-79
2021/04/05 08:57:33;;;;;;;0.90;0.90;;;3.80;99.90;;;;;;5041027;28;20202;-79
2021/04/05 09:00:11;;;;;;;0.90;0.70;;;3.80;99.90;;;;;;5042152;28;20182;-77
2021/04/05 09:02:49;;;;;;;2.47;0.60;;;4.00;99.90;;;;;;5045378;28;20375;-77
2021/04/05 09:05:24;;;;;;;0.87;0.67;;;4.10;99.90;;;;;;5044644;28;20206;-77
2021/04/05 09:08:07;;;;;;;0.63;0.50;;;4.20;99.90;;;;;;5041886;28;20236;-78
2021/04/05 09:10:49;;;;;;;0.83;0.50;;;4.30;99.90;;;;;;5058885;28;20626;-77
2021/04/05 09:13:31;;;;;;;1.87;0.53;;;4.50;99.90;;;;;;5043857;28;20285;-78
2021/04/05 09:16:31;;;;;;;0.33;0.33;;;4.60;99.90;;;;;;5042034;28;20197;-77
2021/04/05 09:19:11;;;;;;;1.20;1.00;;;4.80;99.90;;;;;;5041710;28;20218;-75
2021/04/05 09:21:52;;;;;;;2.47;1.00;;;4.90;99.90;;;;;;5044890;28;20178;-78
2021/04/05 09:24:18;;;;;;;2.67;0.30;;;5.10;99.90;;;;;;5044755;28;20167;-78
2021/04/05 09:27:33;;;;;;;2.57;0.93;;;5.30;99.90;;;;;;5043146;28;20688;-77
2021/04/05 09:30:05;;;;;;;3.37;0.97;;;5.40;99.90;;;;;;5045940;28;20277;-78
2021/04/05 09:33:12;;;;;;;0.67;0.67;;;5.40;99.90;;;;;;5044321;28;20202;-79
2021/04/05 09:36:16;;;;;;;0.30;0.30;;;5.50;99.90;;;;;;5045113;28;20549;-77
2021/04/05 09:38:53;;;;;;;0.30;0.30;;;5.50;99.90;;;;;;5045723;28;20315;-78
2021/04/05 09:41:31;;;;;;;1.93;0.30;;;5.70;99.90;;;;;;5043585;28;20183;-78
2021/04/05 09:44:35;;;;;;;0.20;0.20;;;5.50;99.90;;;;;;5040918;28;20197;-77
2021/04/05 09:47:26;;;;;;;2.23;0.37;;;5.30;99.90;;;;;;5046333;28;20211;-79
2021/04/05 09:50:07;;;;;;;0.20;0.20;;;5.10;99.90;;;;;;5046125;28;20595;-78
2021/04/05 09:53:19;;;;;;;0.33;0.27;;;5.00;99.90;;;;;;5046334;28;20181;-78
2021/04/05 09:55:48;;;;;;;0.53;0.40;;;4.90;99.90;;;;;;5044261;28;20189;-77
2021/04/05 09:58:13;;;;;;;1.20;1.03;;;4.60;99.90;;;;;;5045870;28;20669;-77
2021/04/05 10:00:45;;;;;;;0.23;0.20;;;4.30;99.90;;;;;;5045229;28;20186;-77
2021/04/05 10:03:17;;;;;;;0.73;0.60;;;4.40;99.90;;;;;;5044688;28;20193;-79
2021/04/05 10:05:44;;;;;;;0.50;0.40;;;4.70;99.90;;;;;;5043494;28;20711;-77
2021/04/05 10:08:24;;;;;;;0.30;0.30;;;5.10;99.90;;;;;;5044750;28;20249;-80
2021/04/05 10:10:52;;;;;;;0.20;0.20;;;5.20;99.90;;;;;;5043980;28;20231;-77
2021/04/05 10:13:22;;;;;;;0.63;0.47;;;5.00;99.90;;;;;;5045366;28;20713;-78
2021/04/05 10:15:53;;;;;;;0.40;0.40;;;4.70;99.90;;;;;;5044499;28;20170;-77
2021/04/05 10:18:19;;;;;;;0.20;0.20;;;4.60;99.90;;;;;;5044133;28;20229;-78
2021/04/05 10:20:52;;;;;;;2.33;1.13;;;4.90;99.90;;;;;;5046277;28;20289;-77
2021/04/05 10:23:21;;;;;;;0.50;0.50;;;5.10;99.90;;;;;;5044621;28;20232;-77
2021/04/05 10:25:56;;;;;;;3.10;0.90;;;5.10;99.90;;;;;;5044945;28;20182;-78
2021/04/05 10:28:23;;;;;;;2.80;1.07;;;5.30;99.90;;;;;;5036994;28;20237;-78
2021/04/05 10:30:56;;;;;;;4.87;1.20;;;5.60;99.90;;;;;;5045242;28;20781;-78
2021/04/05 10:33:28;;;;;;;0.87;0.57;;;5.50;99.90;;;;;;5044112;28;20178;-78
2021/04/05 10:35:56;;;;;;;0.50;0.50;;;5.60;99.90;;;;;;5044950;28;20213;-78
2021/04/05 10:38:23;;;;;;;0.60;0.53;;;5.90;99.90;;;;;;5044792;28;20217;-78
2021/04/05 10:40:51;;;;;;;0.73;0.70;;;6.00;99.90;;;;;;5042865;28;20190;-78
2021/04/05 10:43:40;;;;;;;2.27;0.73;;;5.10;99.90;;;;;;5040864;28;20182;-77
2021/04/05 10:46:12;;;;;;;0.23;0.23;;;3.70;99.90;;;;;;5043804;28;20205;-78
2021/04/05 10:48:42;;;;;;;2.80;0.73;;;3.00;99.90;;;;;;5024201;28;603560;-76
2021/04/05 10:51:23;;;;;;;0.47;0.47;;;3.00;99.90;;;;;;5046119;28;20193;-77
2021/04/05 10:53:59;;;;;;;2.07;0.50;;;2.90;99.90;;;;;;5044353;28;20182;-77
2021/04/05 10:56:26;;;;;;;0.90;0.50;;;2.80;99.90;;;;;;5044236;28;20186;-77
2021/04/05 10:59:02;;;;;;;0.70;0.40;;;2.80;99.90;;;;;;5043935;28;21119;-76
2021/04/05 11:01:31;;;;;;;1.70;1.03;;;2.90;99.90;;;;;;5044888;28;20174;-78
2021/04/05 11:03:59;;;;;;;0.57;0.43;;;2.90;99.90;;;;;;5044128;28;20190;-78
2021/04/05 11:06:30;;;;;;;2.00;0.80;;;3.00;99.90;;;;;;5043700;28;20189;-77
2021/04/05 11:09:02;;;;;;;0.67;0.40;;;3.20;99.90;;;;;;5043624;28;20296;-77
2021/04/05 11:11:30;;;;;;;0.73;0.40;;;3.50;99.90;;;;;;5044805;28;20679;-77
2021/04/05 11:14:02;;;;;;;0.43;0.43;;;3.80;99.90;;;;;;5028932;28;20194;-77
2021/04/05 11:16:28;;;;;;;1.37;0.50;;;4.10;99.90;;;;;;5037979;28;20186;-77
2021/04/05 11:18:59;;;;;;;0.20;0.20;;;4.20;99.90;;;;;;5039879;28;20337;-79
2021/04/05 11:21:41;;;;;;;0.93;0.40;;;4.20;99.90;;;;;;5041520;28;20182;-78
2021/04/05 11:24:09;;;;;;;0.17;0.17;;;3.90;99.90;;;;;;5035182;28;20678;-79
2021/04/05 11:26:37;;;;;;;0.23;0.20;;;3.70;99.90;;;;;;5040415;28;20237;-79
2021/04/05 11:29:11;;;;;;;0.30;0.30;;;4.00;99.90;;;;;;5038303;28;20214;-79
2021/04/05 11:31:45;;;;;;;4.30;0.47;;;4.20;99.90;;;;;;5027201;28;20589;-79
2021/04/05 11:34:15;;;;;;;0.30;0.30;;;4.30;99.90;;;;;;5040102;28;20543;-79
2021/04/05 11:36:48;;;;;;;0.20;0.20;;;4.10;99.90;;;;;;5040595;28;20394;-79
2021/04/05 11:39:17;;;;;;;0.40;0.30;;;4.30;99.90;;;;;;5038717;28;20190;-80
2021/04/05 11:41:51;;;;;;;0.67;0.20;;;4.30;99.90;;;;;;5040658;28;20534;-79
2021/04/05 11:44:20;;;;;;;0.30;0.13;;;4.30;99.90;;;;;;5039029;28;20219;-79
2021/04/05 11:46:48;;;;;;;0.20;0.20;;;4.00;99.90;;;;;;5040362;28;20206;-79
2021/04/05 11:49:14;;;;;;;0.30;0.20;;;4.10;99.90;;;;;;5038678;28;20751;-80
2021/04/05 11:51:50;;;;;;;0.20;0.20;;;4.20;99.90;;;;;;5040518;28;20210;-80
2021/04/05 11:54:34;;;;;;;0.67;0.50;;;4.20;99.90;;;;;;5040439;28;20190;-81
2021/04/05 11:57:03;;;;;;;0.17;0.17;;;4.30;99.90;;;;;;5043668;28;20186;-79
2021/04/05 11:59:31;;;;;;;0.20;0.20;;;4.70;99.90;;;;;;5044449;28;20237;-80
2021/04/05 12:02:00;;;;;;;0.30;0.30;;;4.70;99.90;;;;;;5043281;28;20197;-80
2021/04/05 12:04:34;;;;;;;0.40;0.30;;;4.80;99.90;;;;;;5043308;28;20186;-80
2021/04/05 12:07:12;;;;;;;0.97;0.40;;;4.60;99.90;;;;;;5041565;28;20210;-80
2021/04/05 12:09:51;;;;;;;0.37;0.37;;;4.50;99.90;;;;;;5044909;28;20247;-80
2021/04/05 12:12:26;;;;;;;0.70;0.30;;;4.50;99.90;;;;;;5044416;28;20697;-80
2021/04/05 12:14:55;;;;;;;0.20;0.20;;;4.60;99.90;;;;;;5042285;28;20268;-75
2021/04/05 12:17:23;;;;;;;0.40;0.40;;;4.60;99.90;;;;;;5043916;28;20209;-80
2021/04/05 12:19:52;;;;;;;1.53;0.43;;;4.60;99.90;;;;;;5045365;28;20232;-80
2021/04/05 12:22:25;;;;;;;0.10;0.10;;;4.50;99.90;;;;;;5038363;28;20218;-80
2021/04/05 12:24:52;;;;;;;10.70;0.93;;;4.30;99.90;;;;;;5044159;28;20190;-80
2021/04/05 12:27:19;;;;;;;0.30;0.30;;;3.60;99.90;;;;;;5045325;28;20209;-80
2021/04/05 12:29:50;;;;;;;0.20;0.20;;;2.40;99.90;;;;;;5044926;28;20273;-80
2021/04/05 12:32:17;;;;;;;0.97;0.53;;;2.10;99.90;;;;;;5033582;28;20187;-79
2021/04/05 12:34:46;;;;;;;0.70;0.57;;;2.00;99.90;;;;;;5046147;28;20640;-78
2021/04/05 12:37:14;;;;;;;0.20;0.20;;;2.20;99.90;;;;;;5046244;28;20217;-78
2021/04/05 12:39:41;;;;;;;0.23;0.17;;;2.50;99.90;;;;;;5046153;28;20185;-79
2021/04/05 12:42:10;;;;;;;0.70;0.30;;;2.70;99.90;;;;;;5044749;28;20186;-79
2021/04/05 12:44:37;;;;;;;0.77;0.30;;;3.00;99.90;;;;;;5046160;28;20668;-81
2021/04/05 12:47:08;;;;;;;0.63;0.40;;;3.40;99.90;;;;;;5044922;28;20221;-79
2021/04/05 12:49:42;;;;;;;0.70;0.50;;;3.70;99.90;;;;;;5035348;28;20228;-79
2021/04/05 12:52:20;;;;;;;0.23;0.23;;;3.70;99.90;;;;;;5044055;28;20189;-80
2021/04/05 12:54:51;;;;;;;0.67;0.23;;;3.80;99.90;;;;;;5043918;28;20188;-79
2021/04/05 12:57:25;;;;;;;0.77;0.10;;;3.80;99.90;;;;;;5045134;28;20205;-80
2021/04/05 12:59:52;;;;;;;2.33;0.50;;;3.80;99.90;;;;;;5044720;28;20179;-80
2021/04/05 13:02:21;;;;;;;1.20;0.23;;;3.90;99.90;;;;;;5045664;28;20695;-80
2021/04/05 13:04:59;;;;;;;1.40;0.97;;;3.90;99.90;;;;;;5041536;28;20190;-79
2021/04/05 13:07:33;;;;;;;0.10;0.10;;;4.10;99.90;;;;;;5043724;28;21061;-80
2021/04/05 13:10:01;;;;;;;1.50;0.57;;;3.90;99.90;;;;;;5043670;28;20305;-80
2021/04/05 13:12:34;;;;;;;1.20;0.43;;;4.20;99.90;;;;;;5043509;28;20197;-80
2021/04/05 13:15:08;;;;;;;6.27;1.07;;;4.50;99.90;;;;;;5043575;28;20179;-79
2021/04/05 13:17:38;;;;;;;0.87;0.57;;;4.70;99.90;;;;;;5046006;28;20668;-79
2021/04/05 13:20:12;;;;;;;0.60;0.60;;;4.90;99.90;;;;;;5043604;28;20244;-80
2021/04/05 13:22:41;;;;;;;0.50;0.30;;;5.00;99.90;;;;;;5044300;28;20675;-80
2021/04/05 13:25:13;;;;;;;3.17;1.30;;;4.80;99.90;;;;;;5044902;28;20218;-81
2021/04/05 13:27:40;;;;;;;1.87;1.10;;;4.10;99.90;;;;;;5043673;28;20309;-79
2021/04/05 13:30:09;;;;;;;1.33;1.10;;;3.40;99.90;;;;;;5045431;28;20186;-80